EST,Max TemperatureF,Mean TemperatureF,Min TemperatureF,Max Dew PointF,MeanDew PointF,Min DewpointF,Max Humidity, Mean Humidity, Min Humidity, Max Sea Level PressureIn, Mean Sea Level PressureIn, Min Sea Level PressureIn, Max VisibilityMiles, Mean VisibilityMiles, Min VisibilityMiles, Max Wind SpeedMPH, Mean Wind SpeedMPH, Max Gust SpeedMPH,PrecipitationIn, CloudCover, Events, WindDirDegrees
2013-2-1,21,18,16,16,12,4,86,74,59,30.24,29.99,29.78,10,6,0,22,16,31,0.00,7,Fog-Snow,282
2013-2-2,19,16,14,18,13,3,93,82,58,30.22,30.03,29.95,10,2,0,25,13,33,0.12,8,Fog-Snow,230
2013-2-3,21,10,0,16,7,-2,100,84,65,30.00,29.90,29.79,10,4,0,17,2,,0.01,7,Fog-Snow,266
2013-2-4,19,14,8,9,7,4,88,72,59,30.02,29.98,29.92,10,10,8,17,12,,0.00,5,,254
2013-2-5,26,20,14,20,13,10,88,78,58,30.00,29.93,29.84,10,6,2,16,5,,0.00,7,Snow,68
2013-2-6,27,20,12,21,13,5,81,69,53,30.40,30.18,29.87,10,9,5,17,12,25,0.00,5,Snow,292
2013-2-7,30,20,10,19,14,5,79,69,58,30.42,30.30,30.09,10,10,10,18,8,24,0.00,8,,85
2013-2-8,30,24,17,29,21,14,93,86,74,30.18,29.92,29.76,9,2,0,23,13,31,0.32,8,Fog-Snow,35
2013-2-9,19,11,3,16,10,-1,92,83,73,30.47,30.35,30.14,10,5,0,13,7,,0.00,6,Fog-Snow,319
2013-2-10,39,20,0,24,11,-4,95,70,47,30.45,30.26,29.93,10,9,5,15,3,,0.00,4,,93
2013-2-11,46,40,33,38,31,23,89,75,53,29.91,29.70,29.57,10,9,3,36,15,46,0.14,8,Rain-Snow,215
2013-2-12,34,32,30,27,24,21,80,73,66,30.00,29.91,29.73,10,10,7,28,20,39,0.00,8,Snow,250
2013-2-13,34,28,21,23,21,17,85,71,56,29.93,29.85,29.77,10,10,5,9,5,,0.00,5,,258
2013-2-14,37,29,21,32,26,18,93,81,64,29.92,29.84,29.74,10,6,2,23,6,33,0.07,7,Rain-Snow,201
2013-2-15,36,28,21,29,22,13,79,69,56,30.11,29.94,29.75,10,10,10,24,19,34,0.00,6,,259
2013-2-16,27,21,15,19,15,10,93,74,55,30.11,29.99,29.90,10,7,0,17,6,25,0.01,7,Fog-Snow,247
2013-2-17,21,16,12,18,8,1,93,73,58,30.26,30.03,29.90,10,7,0,22,13,26,0.02,7,Fog-Snow,336
2013-2-18,34,18,6,20,9,1,83,66,45,30.33,30.18,29.88,10,10,10,13,6,,0.00,5,,174
2013-2-19,41,32,24,36,27,16,93,76,57,29.85,29.65,29.53,10,8,2,34,17,48,0.37,7,Rain-Snow,216
2013-2-20,24,22,19,16,12,9,86,70,62,30.15,29.93,29.75,10,6,1,28,20,37,0.00,8,Snow,263
2013-2-21,23,19,15,14,11,7,77,70,60,30.45,30.25,30.07,10,7,2,24,14,31,0.00,7,Snow,288
2013-2-22,35,28,21,29,23,14,86,78,64,30.42,30.13,29.98,10,8,1,16,9,24,0.01,7,Snow,112
2013-2-23,36,32,27,29,27,22,82,77,66,29.99,29.93,29.86,10,10,8,17,11,24,0.00,7,,208
2013-2-24,32,30,28,25,23,21,86,76,69,30.12,29.94,29.85,10,6,2,17,10,23,0.00,8,Snow,261
2013-2-25,35,32,27,27,25,23,85,75,61,30.26,30.21,30.14,10,9,6,13,7,,0.00,7,Snow,243
2013-2-26,42,34,26,31,26,21,89,73,49,30.25,30.00,29.72,10,8,3,28,10,37,0.80,6,Rain-Snow,92
2013-2-27,34,33,32,32,31,30,96,90,87,29.72,29.61,29.57,10,4,0,24,11,36,0.37,8,Fog-Rain-Snow,110
2013-2-28,35,34,32,32,30,27,93,88,80,29.80,29.61,29.52,10,4,1,14,10,,0.06,8,Rain-Snow,265